Time;durP1;ratioP1;P1;durP2;ratioP2;P2;SDS_P1;SDS_P2;PMS_P1;PMS_P2;Temp;Humidity;BMP_temperature;BMP_pressure;BME280_temperature;BME280_humidity;BME280_pressure;Samples;Min_cycle;Max_cycle;Signal;HPM_P1;HPM_P2
2022/07/29 00:00:07;;;;;;;2.40;1.40;;;14.80;99.90;;;;;;5031535;28;20382;-66
2022/07/29 00:02:33;;;;;;;4.00;1.50;;;14.70;99.90;;;;;;5026032;28;20069;-66
2022/07/29 00:04:58;;;;;;;2.75;1.25;;;14.80;99.90;;;;;;5027777;28;20111;-66
2022/07/29 00:07:25;;;;;;;4.53;1.30;;;14.80;99.90;;;;;;5033170;28;20092;-68
2022/07/29 00:09:51;;;;;;;4.40;1.42;;;14.80;99.90;;;;;;5032271;28;20148;-67
2022/07/29 00:12:17;;;;;;;4.28;1.20;;;14.80;99.90;;;;;;5032426;28;20548;-66
2022/07/29 00:14:42;;;;;;;2.25;1.23;;;14.80;99.90;;;;;;5031067;28;20041;-66
2022/07/29 00:17:08;;;;;;;4.75;1.30;;;14.70;99.90;;;;;;5032009;28;20044;-66
2022/07/29 00:19:34;;;;;;;5.20;1.45;;;14.80;99.90;;;;;;5037585;28;20492;-66
2022/07/29 00:22:00;;;;;;;4.28;1.65;;;15.20;99.90;;;;;;5040602;28;20087;-66
2022/07/29 00:24:26;;;;;;;4.47;1.67;;;14.80;99.90;;;;;;5031693;28;20038;-66
2022/07/29 00:26:52;;;;;;;3.42;1.52;;;14.70;99.90;;;;;;5036659;28;20055;-66
2022/07/29 00:29:17;;;;;;;3.33;1.30;;;14.80;99.90;;;;;;5038899;28;20048;-66
2022/07/29 00:31:43;;;;;;;3.08;1.42;;;14.80;99.90;;;;;;5039120;28;20148;-65
2022/07/29 00:35:43;;;;;;;3.55;1.50;;;14.90;99.90;;;;;;5040225;28;20056;-65
2022/07/29 00:36:54;;;;;;;3.38;1.55;;;14.80;99.90;;;;;;5035991;28;20057;-66
2022/07/29 00:39:20;;;;;;;3.55;1.40;;;14.70;99.90;;;;;;5035796;28;20038;-65
2022/07/29 00:41:46;;;;;;;3.80;1.77;;;14.70;99.90;;;;;;5040953;28;20041;-65
2022/07/29 00:44:11;;;;;;;3.85;1.42;;;14.70;99.90;;;;;;5038775;28;20398;-65
2022/07/29 00:46:37;;;;;;;4.57;1.40;;;14.70;99.90;;;;;;5037322;28;20099;-67
2022/07/29 00:49:03;;;;;;;3.83;1.48;;;14.80;99.90;;;;;;5041837;28;20446;-65
2022/07/29 00:51:29;;;;;;;4.38;1.40;;;14.80;99.90;;;;;;5041990;28;20040;-65
2022/07/29 00:53:56;;;;;;;3.80;1.40;;;14.70;99.90;;;;;;5041301;28;20050;-66
2022/07/29 00:56:21;;;;;;;3.28;1.42;;;14.80;99.90;;;;;;5042958;28;20406;-65
2022/07/29 00:58:51;;;;;;;3.67;1.50;;;14.70;99.90;;;;;;5044616;28;20037;-65
2022/07/29 01:01:16;;;;;;;3.20;1.27;;;14.80;99.90;;;;;;5041512;28;20052;-65
2022/07/29 01:03:42;;;;;;;4.38;1.70;;;14.70;99.90;;;;;;5044124;28;20044;-65
2022/07/29 01:06:09;;;;;;;2.38;1.30;;;14.80;99.90;;;;;;5042225;28;20033;-66
2022/07/29 01:08:35;;;;;;;2.33;1.10;;;14.70;99.90;;;;;;5037743;28;20492;-66
2022/07/29 01:11:02;;;;;;;3.33;1.20;;;14.80;99.90;;;;;;5040272;28;20073;-66
2022/07/29 01:13:30;;;;;;;3.67;1.38;;;14.70;99.90;;;;;;5045111;28;20064;-66
2022/07/29 01:16:23;;;;;;;4.60;1.83;;;14.80;99.90;;;;;;5041684;28;20036;-66
2022/07/29 01:18:56;;;;;;;3.25;1.42;;;14.80;99.90;;;;;;5040954;28;20092;-66
2022/07/29 01:21:52;;;;;;;3.22;1.70;;;14.70;99.90;;;;;;5042798;28;20041;-66
2022/07/29 01:24:42;;;;;;;3.78;1.52;;;14.80;99.90;;;;;;5035467;28;20064;-66
2022/07/29 01:27:36;;;;;;;3.97;1.55;;;14.80;99.90;;;;;;5037699;28;20064;-66
2022/07/29 01:30:03;;;;;;;4.13;1.80;;;14.80;99.90;;;;;;5036001;28;20196;-66
2022/07/29 01:32:32;;;;;;;4.20;1.30;;;14.80;99.90;;;;;;5041435;28;20509;-66
2022/07/29 01:35:20;;;;;;;4.05;1.60;;;14.70;99.90;;;;;;5043335;28;20082;-66
2022/07/29 01:38:05;;;;;;;3.47;1.38;;;14.70;99.90;;;;;;5040367;28;20163;-66
2022/07/29 01:40:48;;;;;;;3.50;1.48;;;14.70;99.90;;;;;;5040363;28;20044;-66
2022/07/29 01:43:30;;;;;;;5.78;1.63;;;14.80;99.90;;;;;;5040455;28;20116;-66
2022/07/29 01:46:02;;;;;;;4.45;1.45;;;14.80;99.90;;;;;;5041521;28;20401;-66
2022/07/29 01:48:42;;;;;;;3.42;1.42;;;14.80;99.90;;;;;;5038370;28;20110;-66
2022/07/29 01:51:14;;;;;;;2.30;1.20;;;14.80;99.90;;;;;;5037914;28;20041;-66
2022/07/29 01:54:06;;;;;;;4.00;1.67;;;14.70;99.90;;;;;;5044089;28;20048;-66
2022/07/29 01:56:34;;;;;;;3.08;1.30;;;14.80;99.90;;;;;;5038232;28;20045;-66
2022/07/29 01:59:02;;;;;;;2.80;1.27;;;14.80;99.90;;;;;;5044544;28;20049;-66
2022/07/29 02:01:31;;;;;;;3.03;1.60;;;14.70;99.90;;;;;;5040793;28;20037;-66
2022/07/29 02:03:58;;;;;;;4.32;1.55;;;14.80;99.90;;;;;;5035507;28;20041;-66
2022/07/29 02:06:25;;;;;;;5.10;1.50;;;14.70;99.90;;;;;;5043517;28;20053;-66
2022/07/29 02:08:53;;;;;;;3.33;1.30;;;14.90;99.90;;;;;;5040262;28;20108;-66
2022/07/29 02:11:19;;;;;;;5.15;1.52;;;14.70;99.90;;;;;;5043708;28;20392;-66
2022/07/29 02:13:46;;;;;;;3.33;1.60;;;14.80;99.90;;;;;;5042340;28;20033;-66
2022/07/29 02:16:13;;;;;;;2.75;1.70;;;14.80;99.90;;;;;;5042817;28;20045;-66
2022/07/29 02:18:43;;;;;;;3.00;1.58;;;14.90;99.90;;;;;;5040631;28;20037;-66
2022/07/29 02:21:09;;;;;;;3.50;1.70;;;14.70;99.90;;;;;;5041704;28;20054;-66
2022/07/29 02:23:37;;;;;;;3.30;1.75;;;14.80;99.90;;;;;;5042167;28;20033;-66
2022/07/29 02:26:03;;;;;;;2.83;1.45;;;14.80;99.90;;;;;;5039990;28;20053;-66
2022/07/29 02:28:30;;;;;;;3.30;1.50;;;14.80;99.90;;;;;;5042757;28;20424;-66
2022/07/29 02:31:00;;;;;;;3.80;1.50;;;14.70;99.90;;;;;;5040732;28;20041;-66
2022/07/29 02:33:27;;;;;;;4.18;1.83;;;14.90;99.90;;;;;;5039846;28;20080;-66
2022/07/29 02:35:54;;;;;;;3.50;1.67;;;14.70;99.90;;;;;;5044007;28;20044;-66
2022/07/29 02:41:13;;;;;;;4.03;1.60;;;15.00;99.90;;;;;;5039382;28;20493;-66
2022/07/29 02:43:40;;;;;;;2.70;1.73;;;14.90;99.90;;;;;;5040553;28;20037;-66
2022/07/29 02:46:11;;;;;;;4.60;1.98;;;14.80;99.90;;;;;;5040354;28;20500;-66
2022/07/29 02:48:43;;;;;;;3.80;1.63;;;14.80;99.90;;;;;;5040362;28;20036;-67
2022/07/29 02:51:17;;;;;;;3.58;1.70;;;14.80;99.90;;;;;;5041585;28;20405;-67
2022/07/29 02:53:48;;;;;;;5.10;1.80;;;14.80;99.90;;;;;;5038634;28;20041;-67
2022/07/29 02:56:18;;;;;;;4.57;1.70;;;14.80;99.90;;;;;;5043307;28;20053;-67
2022/07/29 02:59:00;;;;;;;3.47;1.65;;;14.80;99.90;;;;;;5038573;28;20045;-67
2022/07/29 03:01:31;;;;;;;3.30;1.35;;;14.80;99.90;;;;;;5040522;28;20044;-67
2022/07/29 03:04:00;;;;;;;4.10;1.65;;;14.80;99.90;;;;;;5042371;28;20044;-67
2022/07/29 03:06:27;;;;;;;3.75;1.60;;;14.70;99.90;;;;;;5041212;28;20045;-66
2022/07/29 03:08:57;;;;;;;3.28;1.83;;;14.80;99.90;;;;;;5040356;28;20057;-67
2022/07/29 03:11:24;;;;;;;4.05;1.67;;;14.70;99.90;;;;;;5040108;28;20056;-67
2022/07/29 03:13:50;;;;;;;3.85;2.08;;;14.70;99.90;;;;;;5041602;28;20045;-67
2022/07/29 03:16:18;;;;;;;3.05;1.65;;;14.70;99.90;;;;;;5040554;28;20083;-66
2022/07/29 03:18:44;;;;;;;3.20;1.70;;;14.70;99.90;;;;;;5036968;28;20055;-67
2022/07/29 03:21:09;;;;;;;4.47;1.42;;;14.70;99.90;;;;;;5041071;28;20132;-67
2022/07/29 03:23:35;;;;;;;2.50;1.52;;;14.80;99.90;;;;;;5039587;28;20037;-66
2022/07/29 03:26:01;;;;;;;4.15;1.77;;;14.70;99.90;;;;;;5041948;28;20044;-66
2022/07/29 03:28:27;;;;;;;4.70;1.63;;;14.70;99.90;;;;;;5036501;28;20132;-67
2022/07/29 03:30:53;;;;;;;4.13;1.80;;;14.70;99.90;;;;;;5044181;28;20033;-66
2022/07/29 03:33:19;;;;;;;3.20;1.70;;;14.70;99.90;;;;;;5039798;28;20037;-67
2022/07/29 03:35:45;;;;;;;4.72;1.63;;;14.70;99.90;;;;;;5042531;28;20060;-66
2022/07/29 03:38:11;;;;;;;2.97;1.50;;;14.70;99.90;;;;;;5039855;28;20038;-67
2022/07/29 03:40:46;;;;;;;2.63;1.30;;;14.70;99.90;;;;;;5041681;28;20041;-67
2022/07/29 03:43:15;;;;;;;3.03;1.40;;;14.70;99.90;;;;;;5033379;28;20053;-66
2022/07/29 03:45:44;;;;;;;4.68;1.70;;;14.70;99.90;;;;;;5034667;28;20072;-67
2022/07/29 03:48:14;;;;;;;3.35;1.70;;;14.70;99.90;;;;;;5034263;28;20045;-66
2022/07/29 03:50:40;;;;;;;4.18;1.90;;;14.70;99.90;;;;;;5035062;28;20482;-67
2022/07/29 03:53:05;;;;;;;3.92;1.98;;;14.60;99.90;;;;;;5042749;28;20131;-67
2022/07/29 03:55:40;;;;;;;3.65;1.77;;;14.60;99.90;;;;;;5038732;28;20047;-67
2022/07/29 03:58:07;;;;;;;4.25;1.75;;;14.60;99.90;;;;;;5032295;28;20053;-67
2022/07/29 04:00:34;;;;;;;4.93;1.80;;;14.60;99.90;;;;;;5033576;28;20060;-66
2022/07/29 04:03:01;;;;;;;5.07;1.92;;;14.60;99.90;;;;;;5032948;28;20044;-67
2022/07/29 04:05:27;;;;;;;4.72;2.10;;;14.60;99.90;;;;;;5031500;28;20038;-66
2022/07/29 04:07:52;;;;;;;3.22;1.80;;;14.60;99.90;;;;;;5032444;28;20057;-66
2022/07/29 04:10:22;;;;;;;3.35;1.90;;;14.60;99.90;;;;;;5037846;28;20153;-66
2022/07/29 04:12:48;;;;;;;4.53;1.85;;;14.60;99.90;;;;;;5031550;28;20095;-66
2022/07/29 04:15:14;;;;;;;3.50;1.63;;;14.60;99.90;;;;;;5031529;28;20038;-66
2022/07/29 04:17:40;;;;;;;8.23;1.92;;;14.70;99.90;;;;;;5031455;28;20056;-66
2022/07/29 04:20:06;;;;;;;3.95;1.92;;;14.70;99.90;;;;;;5034971;28;20473;-66
2022/07/29 04:22:32;;;;;;;3.72;1.65;;;14.70;99.90;;;;;;5042516;28;20029;-66
2022/07/29 04:24:58;;;;;;;3.60;1.80;;;14.70;99.90;;;;;;5037937;28;20367;-66
2022/07/29 04:27:23;;;;;;;4.78;1.70;;;14.70;99.90;;;;;;5041492;28;20048;-66
2022/07/29 04:29:49;;;;;;;4.13;1.60;;;14.70;99.90;;;;;;5041481;28;20049;-67
2022/07/29 04:32:15;;;;;;;3.20;1.60;;;14.70;99.90;;;;;;5043414;28;20084;-67
2022/07/29 04:34:40;;;;;;;4.57;1.65;;;14.80;99.90;;;;;;5042452;28;20040;-67
2022/07/29 04:37:06;;;;;;;3.78;1.70;;;14.80;99.90;;;;;;5042632;28;20036;-66
2022/07/29 04:39:32;;;;;;;3.97;1.90;;;14.80;99.90;;;;;;5039402;28;20057;-66
2022/07/29 04:41:57;;;;;;;3.58;1.65;;;14.80;99.90;;;;;;5038329;28;20087;-65
2022/07/29 04:44:23;;;;;;;4.43;1.60;;;14.90;99.90;;;;;;5036155;28;20052;-66
2022/07/29 04:46:49;;;;;;;4.90;1.75;;;14.90;99.90;;;;;;5038591;28;20037;-66
2022/07/29 04:49:14;;;;;;;4.55;1.60;;;14.90;99.90;;;;;;5038409;28;20125;-66
2022/07/29 04:51:40;;;;;;;4.13;1.60;;;15.10;99.90;;;;;;5040444;28;20501;-66
2022/07/29 04:54:06;;;;;;;3.83;1.60;;;15.10;99.90;;;;;;5031558;28;20033;-66
2022/07/29 04:56:31;;;;;;;4.10;1.65;;;15.00;99.90;;;;;;5035682;28;20547;-66
2022/07/29 04:58:57;;;;;;;3.47;1.55;;;15.00;99.90;;;;;;5034016;28;20554;-66
2022/07/29 05:01:23;;;;;;;3.50;1.60;;;15.00;99.90;;;;;;5040340;28;20255;-66
2022/07/29 05:03:48;;;;;;;5.85;1.58;;;15.00;99.90;;;;;;5045203;28;20049;-65
2022/07/29 05:06:14;;;;;;;6.25;1.80;;;15.00;99.90;;;;;;5041853;28;20063;-65
2022/07/29 05:08:39;;;;;;;4.45;1.83;;;15.10;99.90;;;;;;5039007;28;20156;-65
2022/07/29 05:11:05;;;;;;;3.05;1.55;;;15.20;99.90;;;;;;5034763;28;20432;-66
2022/07/29 05:13:31;;;;;;;4.93;1.58;;;15.20;99.90;;;;;;5033824;28;20061;-66
2022/07/29 05:15:58;;;;;;;3.30;1.52;;;15.10;99.90;;;;;;5035102;28;20549;-67
2022/07/29 05:18:24;;;;;;;3.00;1.58;;;15.20;99.90;;;;;;5036603;28;20102;-66
2022/07/29 05:20:50;;;;;;;4.95;1.60;;;15.20;99.90;;;;;;5043339;28;20052;-66
2022/07/29 05:23:16;;;;;;;3.17;1.63;;;15.20;99.90;;;;;;5041109;28;20481;-67
2022/07/29 05:25:42;;;;;;;3.63;1.55;;;15.30;99.90;;;;;;5044436;28;20141;-67
2022/07/29 05:28:07;;;;;;;2.53;1.40;;;15.30;99.90;;;;;;5041351;28;20139;-67
2022/07/29 05:30:33;;;;;;;5.40;1.75;;;15.40;99.90;;;;;;5037801;28;20124;-67
2022/07/29 05:32:59;;;;;;;3.45;1.67;;;15.50;99.90;;;;;;5044569;28;20048;-68
2022/07/29 05:35:24;;;;;;;3.13;1.60;;;15.50;99.90;;;;;;5040969;28;20195;-66
2022/07/29 05:37:50;;;;;;;3.95;1.80;;;15.50;99.90;;;;;;5043519;28;20033;-66
2022/07/29 05:40:16;;;;;;;4.78;1.70;;;15.60;99.90;;;;;;5034121;28;20512;-67
2022/07/29 05:42:41;;;;;;;3.92;1.63;;;15.70;99.90;;;;;;5033124;28;20048;-67
2022/07/29 05:45:08;;;;;;;5.20;2.13;;;15.60;99.90;;;;;;5036764;28;20037;-67
2022/07/29 05:47:33;;;;;;;5.25;1.80;;;15.70;99.90;;;;;;5042283;28;20045;-66
2022/07/29 05:49:59;;;;;;;4.90;1.52;;;15.80;99.90;;;;;;5042892;28;20045;-67
2022/07/29 05:52:25;;;;;;;5.63;1.92;;;15.80;99.90;;;;;;5041542;28;20041;-67
2022/07/29 05:54:51;;;;;;;4.10;1.63;;;15.90;99.90;;;;;;5040012;28;20386;-67
2022/07/29 05:57:18;;;;;;;5.20;1.70;;;15.90;99.90;;;;;;5042930;28;20121;-66
2022/07/29 05:59:44;;;;;;;4.45;1.60;;;16.00;99.90;;;;;;5041702;28;20152;-66
2022/07/29 06:02:09;;;;;;;3.83;1.50;;;16.00;99.90;;;;;;5042468;28;20045;-67
2022/07/29 06:04:35;;;;;;;3.67;1.80;;;16.10;99.90;;;;;;5041831;28;20041;-67
2022/07/29 06:07:01;;;;;;;4.53;1.58;;;16.20;99.90;;;;;;5040758;28;20041;-65
2022/07/29 06:09:27;;;;;;;3.45;1.50;;;16.30;99.90;;;;;;5040022;28;20068;-66
2022/07/29 06:11:52;;;;;;;4.15;1.48;;;16.40;99.90;;;;;;5024813;28;20045;-66
2022/07/29 06:14:18;;;;;;;4.57;1.95;;;16.50;99.90;;;;;;5032784;28;20167;-67
2022/07/29 06:16:44;;;;;;;3.67;2.10;;;16.70;99.90;;;;;;5037179;28;20059;-68
2022/07/29 06:19:10;;;;;;;3.97;1.58;;;16.80;99.90;;;;;;5035650;28;20175;-67
2022/07/29 06:21:35;;;;;;;3.63;1.80;;;17.20;99.90;;;;;;5039428;28;20037;-67
2022/07/29 06:24:01;;;;;;;4.57;1.80;;;17.10;99.90;;;;;;5036235;28;20037;-67
2022/07/29 06:26:27;;;;;;;4.30;1.88;;;17.30;99.90;;;;;;5039111;28;20068;-67
2022/07/29 06:28:52;;;;;;;4.55;1.45;;;17.40;99.90;;;;;;5039546;28;20350;-68
2022/07/29 06:31:18;;;;;;;4.18;1.60;;;17.60;99.90;;;;;;5039879;28;20117;-67
2022/07/29 06:33:44;;;;;;;5.07;1.75;;;17.80;99.90;;;;;;5039762;28;20112;-67
2022/07/29 06:36:09;;;;;;;3.42;1.60;;;17.90;99.90;;;;;;5043494;28;20489;-67
2022/07/29 06:38:35;;;;;;;4.13;1.80;;;18.00;99.90;;;;;;5037444;28;20086;-67
2022/07/29 06:41:05;;;;;;;2.97;1.35;;;17.90;99.90;;;;;;5039455;28;20052;-67
2022/07/29 06:43:41;;;;;;;6.15;1.77;;;18.20;99.90;;;;;;5033928;28;20049;-67
2022/07/29 06:46:10;;;;;;;5.15;1.73;;;18.20;99.90;;;;;;5038563;28;20404;-69
2022/07/29 06:48:36;;;;;;;4.05;1.65;;;18.30;99.90;;;;;;5041087;28;20037;-66
2022/07/29 06:51:03;;;;;;;3.85;1.38;;;18.30;99.90;;;;;;5040340;28;20050;-67
2022/07/29 06:53:30;;;;;;;3.58;1.65;;;18.50;99.90;;;;;;5040785;28;20072;-67
2022/07/29 06:55:57;;;;;;;5.05;1.30;;;18.60;99.90;;;;;;5039710;28;20049;-68
2022/07/29 06:58:24;;;;;;;7.85;1.63;;;18.70;99.90;;;;;;5040164;28;20053;-67
2022/07/29 07:00:50;;;;;;;4.85;1.40;;;18.90;99.90;;;;;;5039043;28;20045;-68
2022/07/29 07:03:16;;;;;;;3.38;1.45;;;19.00;99.90;;;;;;5034148;28;20040;-68
2022/07/29 07:05:43;;;;;;;6.28;1.80;;;19.00;99.90;;;;;;5040580;28;20037;-69
2022/07/29 07:08:09;;;;;;;3.63;1.40;;;19.10;99.90;;;;;;5038512;28;20095;-66
2022/07/29 07:10:35;;;;;;;4.60;1.73;;;19.20;99.90;;;;;;5042584;28;20037;-66
2022/07/29 07:13:00;;;;;;;3.58;1.50;;;19.30;99.90;;;;;;5038999;28;20072;-67
2022/07/29 07:15:27;;;;;;;3.17;1.40;;;19.30;99.90;;;;;;5042614;28;20374;-66
2022/07/29 07:17:56;;;;;;;2.92;1.40;;;19.40;99.90;;;;;;5036204;28;20845;-67
2022/07/29 07:20:21;;;;;;;4.35;1.70;;;19.40;99.90;;;;;;5024708;28;20041;-68
2022/07/29 07:22:47;;;;;;;8.15;1.85;;;19.40;99.90;;;;;;5035845;28;20043;-67
2022/07/29 07:25:12;;;;;;;4.03;1.50;;;19.50;99.90;;;;;;5033228;28;20513;-67
2022/07/29 07:27:39;;;;;;;6.13;1.60;;;19.50;99.90;;;;;;5035539;28;20045;-68
2022/07/29 07:30:06;;;;;;;5.15;1.60;;;19.40;99.90;;;;;;5034747;28;20077;-68
2022/07/29 07:32:35;;;;;;;4.97;1.33;;;19.40;99.90;;;;;;5036357;28;20059;-67
2022/07/29 07:35:05;;;;;;;5.13;1.50;;;19.40;99.90;;;;;;5034405;28;20045;-68
2022/07/29 07:37:31;;;;;;;3.55;1.70;;;19.40;99.90;;;;;;5031738;28;20045;-70
2022/07/29 07:39:57;;;;;;;4.70;1.40;;;19.40;99.90;;;;;;5036731;28;20045;-68
2022/07/29 07:42:23;;;;;;;5.03;1.70;;;19.40;99.90;;;;;;5040349;28;20060;-72
2022/07/29 07:44:52;;;;;;;5.22;1.65;;;19.30;99.90;;;;;;5037142;28;20045;-70
2022/07/29 07:47:23;;;;;;;4.40;1.45;;;19.30;99.90;;;;;;5037717;28;20409;-66
2022/07/29 07:49:52;;;;;;;3.95;1.60;;;19.20;99.90;;;;;;5039808;28;20511;-67
2022/07/29 07:52:20;;;;;;;3.75;1.50;;;19.20;99.90;;;;;;5037757;28;20053;-68
2022/07/29 07:54:50;;;;;;;4.13;1.50;;;19.20;99.90;;;;;;5037913;28;20485;-69
2022/07/29 07:57:16;;;;;;;3.25;1.40;;;19.20;99.90;;;;;;5039570;28;20050;-69
2022/07/29 07:59:42;;;;;;;3.42;1.40;;;19.20;99.90;;;;;;5038640;28;20549;-71
2022/07/29 08:02:09;;;;;;;7.30;1.52;;;19.20;99.90;;;;;;5043094;28;20129;-69
2022/07/29 08:04:35;;;;;;;3.85;1.50;;;19.20;99.90;;;;;;5041364;28;20094;-68
2022/07/29 08:07:01;;;;;;;4.30;1.50;;;19.20;99.90;;;;;;5043246;28;20045;-68
2022/07/29 08:09:28;;;;;;;3.30;1.55;;;19.30;99.90;;;;;;5038121;28;20040;-69
2022/07/29 08:11:54;;;;;;;4.70;1.90;;;19.30;99.90;;;;;;5036200;28;20045;-68
2022/07/29 08:14:20;;;;;;;5.82;1.90;;;19.30;99.90;;;;;;5040169;28;20033;-68
2022/07/29 08:16:46;;;;;;;4.45;1.65;;;19.40;99.90;;;;;;5044434;28;20421;-69
2022/07/29 08:19:11;;;;;;;3.60;1.60;;;19.50;99.90;;;;;;5044194;28;20040;-69
2022/07/29 08:21:38;;;;;;;4.05;1.80;;;19.60;99.90;;;;;;5042084;28;20473;-70
2022/07/29 08:26:49;;;;;;;4.35;1.60;;;19.90;99.90;;;;;;5040555;28;20065;-68
2022/07/29 08:29:14;;;;;;;3.13;1.45;;;20.20;99.90;;;;;;5041530;28;20469;-68
2022/07/29 08:31:41;;;;;;;3.95;1.77;;;20.40;99.70;;;;;;5044173;28;20738;-68
2022/07/29 08:34:14;;;;;;;5.97;1.58;;;20.70;99.30;;;;;;5040255;28;20052;-67
2022/07/29 08:36:40;;;;;;;3.97;1.40;;;20.90;99.00;;;;;;5037383;28;20063;-67
2022/07/29 08:39:06;;;;;;;4.18;1.60;;;21.10;99.20;;;;;;5042823;28;20041;-66
2022/07/29 08:41:31;;;;;;;4.88;1.30;;;21.30;99.20;;;;;;5040449;28;20073;-69
2022/07/29 08:43:57;;;;;;;4.35;1.50;;;21.60;99.50;;;;;;5035553;28;20068;-68
2022/07/29 08:46:23;;;;;;;4.30;1.65;;;21.60;98.40;;;;;;5040887;28;20052;-66
2022/07/29 08:48:49;;;;;;;4.45;1.80;;;21.70;98.20;;;;;;5040824;28;20049;-67
2022/07/29 08:51:20;;;;;;;4.18;1.63;;;21.60;98.40;;;;;;5040951;28;20521;-65
2022/07/29 08:53:48;;;;;;;4.28;1.83;;;21.60;98.10;;;;;;5040594;28;20120;-65
2022/07/29 08:56:18;;;;;;;4.93;2.00;;;21.50;98.00;;;;;;5039462;28;20056;-66
2022/07/29 08:58:46;;;;;;;3.80;1.60;;;21.40;98.10;;;;;;5039758;28;20515;-64
2022/07/29 09:01:17;;;;;;;3.75;1.85;;;21.40;98.20;;;;;;5036911;28;20378;-64
2022/07/29 09:03:46;;;;;;;5.03;1.70;;;21.30;98.40;;;;;;5040429;28;20041;-65
2022/07/29 09:06:17;;;;;;;4.97;1.70;;;21.30;98.20;;;;;;5041062;28;20492;-64
2022/07/29 09:08:44;;;;;;;3.63;1.65;;;21.30;98.10;;;;;;5040387;28;20041;-63
2022/07/29 09:11:11;;;;;;;6.00;1.80;;;21.20;98.30;;;;;;5041820;28;20084;-64
2022/07/29 09:13:36;;;;;;;4.93;1.58;;;21.00;98.50;;;;;;5038227;28;20052;-65
2022/07/29 09:16:02;;;;;;;4.18;1.77;;;21.00;98.50;;;;;;5040535;28;20042;-63
2022/07/29 09:18:35;;;;;;;3.88;1.70;;;21.00;98.70;;;;;;5040623;28;20571;-67
2022/07/29 09:24:05;;;;;;;4.72;1.42;;;20.90;99.40;;;;;;5037330;28;20045;-67
2022/07/29 09:26:33;;;;;;;4.35;1.70;;;20.90;99.30;;;;;;5039420;28;20045;-66
2022/07/29 09:28:59;;;;;;;3.85;1.70;;;20.90;99.10;;;;;;5040117;28;20509;-65
2022/07/29 09:31:35;;;;;;;5.32;2.17;;;20.90;99.00;;;;;;5038888;28;20046;-66
2022/07/29 09:34:01;;;;;;;5.75;1.65;;;21.00;99.10;;;;;;5038135;28;20053;-70
2022/07/29 09:36:27;;;;;;;6.65;1.98;;;21.00;99.10;;;;;;5042015;28;20393;-67
2022/07/29 09:39:00;;;;;;;3.30;1.52;;;21.10;99.20;;;;;;5037512;28;20049;-68
2022/07/29 09:41:27;;;;;;;3.00;1.58;;;21.10;99.30;;;;;;5038941;28;20037;-67
2022/07/29 09:43:57;;;;;;;4.82;1.95;;;22.20;99.10;;;;;;5036199;28;20045;-67
2022/07/29 09:46:24;;;;;;;5.88;2.65;;;21.30;99.30;;;;;;5040535;28;20041;-71
2022/07/29 09:49:28;;;;;;;4.80;2.00;;;21.40;99.10;;;;;;5038059;28;20042;-71
2022/07/29 09:52:08;;;;;;;4.25;1.92;;;21.60;99.30;;;;;;5000439;28;20068;-69
2022/07/29 09:54:38;;;;;;;5.18;2.00;;;21.60;99.30;;;;;;5001388;28;20096;-68
2022/07/29 09:57:12;;;;;;;4.75;2.00;;;21.60;99.30;;;;;;5014885;28;20045;-67
2022/07/29 09:59:38;;;;;;;4.78;1.90;;;21.60;99.30;;;;;;5037043;28;20044;-65
2022/07/29 10:02:13;;;;;;;4.65;1.85;;;21.70;99.30;;;;;;5038546;28;20047;-66
2022/07/29 10:04:40;;;;;;;4.85;1.95;;;21.80;99.20;;;;;;5036493;28;20045;-68
2022/07/29 10:07:06;;;;;;;4.43;1.60;;;21.70;99.30;;;;;;5035277;28;20128;-67
2022/07/29 10:09:33;;;;;;;4.50;1.90;;;21.60;99.30;;;;;;5038454;28;20121;-68
2022/07/29 10:12:17;;;;;;;6.43;2.05;;;21.60;98.70;;;;;;5040836;28;20065;-67
2022/07/29 10:14:42;;;;;;;4.38;1.60;;;21.50;99.00;;;;;;5042004;28;20049;-68
2022/07/29 10:17:09;;;;;;;5.65;1.92;;;21.50;99.30;;;;;;5037768;28;20124;-67
2022/07/29 10:19:37;;;;;;;5.65;2.10;;;21.40;99.50;;;;;;5038735;28;20095;-68
2022/07/29 10:22:06;;;;;;;4.47;2.08;;;21.30;99.30;;;;;;5035889;28;20044;-67
2022/07/29 10:24:32;;;;;;;4.30;1.88;;;21.20;99.00;;;;;;5036898;28;20405;-70
2022/07/29 10:27:02;;;;;;;3.28;1.90;;;21.10;99.20;;;;;;5037289;28;20040;-68
2022/07/29 10:29:31;;;;;;;6.78;2.10;;;21.00;99.30;;;;;;5038564;28;20069;-67
2022/07/29 10:32:15;;;;;;;5.13;2.00;;;20.90;99.60;;;;;;5041386;28;20056;-69
2022/07/29 10:35:11;;;;;;;5.07;2.17;;;20.90;99.70;;;;;;5039785;28;20053;-68
2022/07/29 10:38:12;;;;;;;5.07;2.22;;;20.90;99.40;;;;;;5039329;28;20067;-66
2022/07/29 10:43:36;;;;;;;7.18;2.30;;;20.80;99.50;;;;;;5034158;28;20049;-68
2022/07/29 10:46:02;;;;;;;6.05;2.67;;;20.70;99.90;;;;;;5033723;28;20553;-67
2022/07/29 10:48:29;;;;;;;4.10;2.15;;;20.60;99.90;;;;;;5037264;28;20131;-68
2022/07/29 10:51:04;;;;;;;5.40;2.70;;;20.50;99.90;;;;;;5038098;28;20044;-71
2022/07/29 10:54:04;;;;;;;5.13;2.33;;;20.50;99.90;;;;;;5037859;28;20045;-69
2022/07/29 10:56:33;;;;;;;4.70;2.30;;;20.40;99.90;;;;;;5031515;28;20045;-70
2022/07/29 10:59:18;;;;;;;4.68;2.40;;;20.40;99.90;;;;;;5033210;28;20040;-70
2022/07/29 11:01:47;;;;;;;6.07;2.80;;;20.40;99.90;;;;;;5039985;28;20037;-69
2022/07/29 11:04:12;;;;;;;6.88;2.78;;;20.40;99.90;;;;;;5037846;28;20365;-69
2022/07/29 11:07:03;;;;;;;5.28;2.85;;;20.60;99.90;;;;;;5040990;28;20051;-71
2022/07/29 11:09:30;;;;;;;4.25;2.33;;;20.60;99.90;;;;;;5037017;28;20120;-68
2022/07/29 11:11:56;;;;;;;4.40;1.92;;;20.70;99.90;;;;;;5034487;28;20528;-68
2022/07/29 11:14:53;;;;;;;6.15;2.35;;;20.50;99.90;;;;;;5039123;28;20044;-68
2022/07/29 11:17:18;;;;;;;5.75;2.25;;;20.60;99.90;;;;;;5037792;28;20061;-69
2022/07/29 11:19:44;;;;;;;4.47;2.35;;;20.60;99.90;;;;;;5041199;28;20523;-69
2022/07/29 11:22:11;;;;;;;7.97;2.60;;;20.60;99.90;;;;;;5034594;28;20513;-68
2022/07/29 11:24:37;;;;;;;4.25;2.53;;;20.60;99.90;;;;;;5042529;28;20570;-68
2022/07/29 11:27:08;;;;;;;5.57;2.20;;;20.70;99.90;;;;;;5036712;28;20048;-66
2022/07/29 11:29:52;;;;;;;5.05;2.40;;;20.70;99.90;;;;;;5040424;28;20042;-68
2022/07/29 11:32:21;;;;;;;4.85;2.60;;;20.70;99.90;;;;;;5037827;28;20048;-68
2022/07/29 11:34:48;;;;;;;5.38;2.22;;;20.80;99.90;;;;;;5037226;28;20048;-68
2022/07/29 11:37:15;;;;;;;6.30;3.03;;;20.80;99.90;;;;;;5040574;28;20072;-68
2022/07/29 11:39:54;;;;;;;6.75;2.70;;;20.80;99.90;;;;;;5037820;28;20079;-68
2022/07/29 11:42:20;;;;;;;8.52;2.75;;;20.90;99.90;;;;;;5032885;28;20100;-68
2022/07/29 11:45:05;;;;;;;5.00;3.08;;;20.90;99.90;;;;;;5038655;28;20042;-67
2022/07/29 11:47:36;;;;;;;6.27;2.40;;;20.90;99.90;;;;;;5036446;28;20053;-67
2022/07/29 11:50:03;;;;;;;6.50;2.58;;;21.00;99.90;;;;;;5037673;28;20042;-67
2022/07/29 11:52:44;;;;;;;6.32;2.40;;;21.00;99.90;;;;;;5038927;28;20401;-67
2022/07/29 11:55:15;;;;;;;6.15;2.63;;;21.00;99.90;;;;;;5037148;28;20057;-67
2022/07/29 11:57:59;;;;;;;4.03;2.38;;;21.10;99.90;;;;;;5041440;28;20067;-67
2022/07/29 12:00:35;;;;;;;5.57;2.40;;;21.40;99.90;;;;;;5037729;28;20136;-67
2022/07/29 12:03:05;;;;;;;4.45;2.55;;;21.30;99.90;;;;;;5036419;28;20695;-66
2022/07/29 12:05:36;;;;;;;6.40;2.50;;;21.40;99.90;;;;;;5041431;28;20052;-68
2022/07/29 12:08:18;;;;;;;4.25;2.28;;;21.50;99.90;;;;;;5040903;28;20051;-69
2022/07/29 12:10:45;;;;;;;5.53;2.40;;;21.40;99.90;;;;;;5035343;28;20481;-68
2022/07/29 12:13:13;;;;;;;4.72;2.50;;;21.50;99.80;;;;;;5042292;28;20060;-77
2022/07/29 12:15:40;;;;;;;5.38;2.20;;;21.60;99.80;;;;;;5037689;28;20159;-68
2022/07/29 12:18:20;;;;;;;4.57;2.28;;;21.60;99.90;;;;;;5040569;28;20452;-68
2022/07/29 12:20:47;;;;;;;5.47;2.38;;;21.70;99.90;;;;;;5034718;28;20064;-69
2022/07/29 12:23:16;;;;;;;5.15;2.20;;;21.80;99.90;;;;;;5040423;28;20045;-69
2022/07/29 12:25:43;;;;;;;5.05;2.55;;;22.00;99.90;;;;;;5034077;28;20037;-69
2022/07/29 12:28:12;;;;;;;5.15;2.58;;;22.10;99.90;;;;;;5041986;28;20123;-69
2022/07/29 12:30:49;;;;;;;5.03;2.47;;;22.20;99.50;;;;;;5038867;28;20057;-70
2022/07/29 12:33:27;;;;;;;7.40;2.63;;;22.30;99.80;;;;;;5038979;28;20049;-70
2022/07/29 12:36:03;;;;;;;5.25;2.75;;;22.40;99.70;;;;;;5039922;28;20056;-70
2022/07/29 12:38:29;;;;;;;;;;;22.60;99.40;;;;;;5041191;28;20037;-69
2022/07/29 12:40:55;;;;;;;6.27;2.47;;;22.60;98.80;;;;;;5040530;28;19936;-70
2022/07/29 12:43:23;;;;;;;4.55;2.50;;;22.70;98.80;;;;;;5039127;28;20556;-70
2022/07/29 12:45:54;;;;;;;5.03;2.30;;;22.80;98.60;;;;;;5041544;28;20052;-69
2022/07/29 12:48:43;;;;;;;5.68;2.45;;;22.90;98.30;;;;;;5039246;28;20034;-70
2022/07/29 12:51:11;;;;;;;8.13;2.88;;;23.00;98.40;;;;;;5039586;28;20477;-70
2022/07/29 12:53:40;;;;;;;4.53;2.38;;;23.10;98.10;;;;;;5034542;28;20057;-70
2022/07/29 12:56:14;;;;;;;5.88;2.60;;;23.20;98.10;;;;;;5042834;28;20053;-70
2022/07/29 12:58:41;;;;;;;4.60;2.53;;;23.20;97.60;;;;;;5037227;28;20131;-71
2022/07/29 13:01:14;;;;;;;5.47;2.40;;;23.30;97.90;;;;;;5044145;28;20036;-72
2022/07/29 13:03:56;;;;;;;5.68;2.50;;;23.40;97.70;;;;;;5044529;28;20087;-70
2022/07/29 13:06:29;;;;;;;4.43;2.17;;;23.50;97.30;;;;;;5044110;28;20338;-75
2022/07/29 13:09:05;;;;;;;4.72;2.42;;;23.60;97.30;;;;;;5042896;28;20045;-76